createdAt,value
2023-04-10T00:00:11.081Z,24.98
2023-04-10T00:01:11.088Z,26.08
2023-04-10T00:02:11.234Z,28.02
2023-04-10T00:03:11.305Z,26.44
2023-04-10T00:04:11.260Z,23.52
2023-04-10T00:05:11.158Z,24.02
2023-04-10T00:06:11.096Z,26.78
2023-04-10T00:07:11.091Z,26.80
2023-04-10T00:08:11.092Z,22.60
2023-04-10T00:09:11.081Z,26.94
2023-04-10T00:10:11.091Z,35.52
2023-04-10T00:11:11.081Z,27.04
2023-04-10T00:12:11.086Z,27.84
2023-04-10T00:13:11.089Z,32.44
2023-04-10T00:14:11.081Z,30.42
2023-04-10T00:15:11.083Z,26.66
2023-04-10T00:16:11.150Z,31.44
2023-04-10T00:17:11.081Z,31.14
2023-04-10T00:18:11.103Z,36.06
2023-04-10T00:19:11.093Z,30.54
2023-04-10T00:20:11.090Z,30.62
2023-04-10T00:21:11.079Z,27.44
2023-04-10T00:22:11.109Z,30.60
2023-04-10T00:23:11.089Z,31.40
2023-04-10T00:24:11.081Z,29.66
2023-04-10T00:25:11.109Z,31.82
2023-04-10T00:26:11.082Z,31.00
2023-04-10T00:27:11.082Z,28.34
2023-04-10T00:28:11.092Z,28.04
2023-04-10T00:29:11.086Z,29.26
2023-04-10T00:30:11.089Z,30.10
2023-04-10T00:31:11.099Z,32.30
2023-04-10T00:32:11.144Z,30.50
2023-04-10T00:33:11.149Z,25.72
2023-04-10T00:34:11.087Z,33.80
2023-04-10T00:35:11.090Z,30.60
2023-04-10T00:36:11.148Z,26.16
2023-04-10T00:37:11.086Z,31.64
2023-04-10T00:38:11.086Z,31.36
2023-04-10T00:39:11.104Z,27.20
2023-04-10T00:40:11.085Z,29.46
2023-04-10T00:41:11.087Z,29.54
2023-04-10T00:42:13.086Z,32.84
2023-04-10T00:43:11.086Z,29.96
2023-04-10T00:44:11.107Z,30.48
2023-04-10T00:45:11.100Z,28.96
2023-04-10T00:46:11.092Z,32.42
2023-04-10T00:47:11.095Z,32.58
2023-04-10T00:48:11.091Z,30.14
2023-04-10T00:49:11.089Z,32.54
2023-04-10T00:50:11.097Z,33.06
2023-04-10T00:51:11.094Z,30.96
2023-04-10T00:52:11.102Z,31.78
2023-04-10T00:53:11.117Z,35.62
2023-04-10T00:54:11.086Z,33.52
2023-04-10T00:55:11.087Z,31.56
2023-04-10T00:56:11.096Z,29.54
2023-04-10T00:57:11.090Z,34.14
2023-04-10T00:58:11.090Z,33.70
2023-04-10T00:59:11.098Z,32.02
2023-04-10T01:00:11.090Z,34.16
2023-04-10T01:01:11.079Z,33.06
2023-04-10T01:02:11.133Z,33.02
2023-04-10T01:03:11.190Z,37.14
2023-04-10T01:04:11.105Z,30.42
2023-04-10T01:05:11.075Z,33.32
2023-04-10T01:06:19.064Z,31.76
2023-04-10T01:07:22.060Z,34.80
2023-04-10T01:08:19.068Z,35.64
2023-04-10T01:09:18.061Z,35.20
2023-04-10T01:10:20.083Z,30.18
2023-04-10T01:11:19.065Z,38.30
2023-04-10T01:12:19.070Z,32.88
2023-04-10T01:13:19.067Z,37.00
2023-04-10T01:14:21.067Z,34.12
2023-04-10T01:15:15.075Z,35.78
2023-04-10T01:16:18.098Z,37.06
2023-04-10T01:17:17.058Z,33.26
2023-04-10T01:18:19.078Z,33.14
2023-04-10T01:19:21.088Z,31.04
2023-04-10T01:20:13.079Z,35.62
2023-04-10T01:21:12.067Z,32.68
2023-04-10T01:22:17.070Z,36.98
2023-04-10T01:23:19.062Z,37.78
2023-04-10T01:24:21.070Z,34.06
2023-04-10T01:25:19.061Z,33.74
2023-04-10T01:26:13.059Z,36.10
2023-04-10T01:27:19.072Z,34.22
2023-04-10T01:28:19.084Z,41.72
2023-04-10T01:29:17.066Z,36.52
2023-04-10T01:30:14.068Z,32.00
2023-04-10T01:31:12.096Z,33.66
2023-04-10T01:32:12.062Z,34.82
2023-04-10T01:33:12.061Z,39.26
2023-04-10T01:34:16.085Z,32.62
2023-04-10T01:35:11.072Z,33.86
2023-04-10T01:36:11.083Z,34.32
2023-04-10T01:37:19.068Z,33.00
2023-04-10T01:38:11.074Z,35.96
2023-04-10T01:39:11.068Z,30.02
2023-04-10T01:40:17.074Z,32.92
2023-04-10T01:41:11.067Z,34.34
2023-04-10T01:42:13.065Z,38.76
2023-04-10T01:43:11.068Z,32.86
2023-04-10T01:44:11.069Z,37.44
2023-04-10T01:45:13.069Z,36.96
2023-04-10T01:46:11.108Z,33.56
2023-04-10T01:47:11.072Z,30.62
2023-04-10T01:48:11.067Z,33.52
2023-04-10T01:49:11.097Z,29.02
2023-04-10T01:50:11.083Z,38.86
2023-04-10T01:51:11.068Z,32.88
2023-04-10T01:52:11.083Z,39.48
2023-04-10T01:53:11.097Z,33.80
2023-04-10T01:54:11.072Z,36.54
2023-04-10T01:55:11.065Z,37.04
2023-04-10T01:56:11.071Z,34.48
2023-04-10T01:57:11.071Z,39.32
2023-04-10T01:58:11.066Z,35.72
2023-04-10T01:59:11.070Z,38.14
2023-04-10T02:00:11.104Z,36.96
2023-04-10T02:01:16.604Z,32.20
2023-04-10T02:02:13.153Z,34.58
2023-04-10T02:03:11.334Z,34.50
2023-04-10T02:04:11.168Z,29.34
2023-04-10T02:05:11.089Z,32.12
2023-04-10T02:06:18.074Z,33.02
2023-04-10T02:07:19.083Z,30.30
2023-04-10T02:08:19.078Z,31.94
2023-04-10T02:09:21.080Z,30.00
2023-04-10T02:10:16.085Z,27.02
2023-04-10T02:11:21.071Z,26.36
2023-04-10T02:12:18.104Z,27.60
2023-04-10T02:13:11.071Z,30.78
2023-04-10T02:14:12.075Z,31.76
2023-04-10T02:15:12.082Z,25.84
2023-04-10T02:16:13.082Z,28.96
2023-04-10T02:17:11.074Z,27.68
2023-04-10T02:18:11.071Z,28.28
2023-04-10T02:19:11.071Z,28.44
2023-04-10T02:20:11.076Z,29.94
2023-04-10T02:21:11.071Z,30.24
2023-04-10T02:22:11.069Z,35.46
2023-04-10T02:23:11.081Z,29.16
2023-04-10T02:24:11.072Z,32.78
2023-04-10T02:25:11.092Z,27.58
2023-04-10T02:26:11.090Z,34.74
2023-04-10T02:27:11.071Z,31.82
2023-04-10T02:28:11.072Z,29.98
2023-04-10T02:29:11.079Z,29.10
2023-04-10T02:30:11.085Z,31.00
2023-04-10T02:31:11.119Z,29.02
2023-04-10T02:32:11.083Z,33.20
2023-04-10T02:33:11.088Z,31.16
2023-04-10T02:34:11.074Z,29.56
2023-04-10T02:35:11.072Z,33.60
2023-04-10T02:36:11.101Z,30.60
2023-04-10T02:37:11.069Z,25.58
2023-04-10T02:38:11.082Z,28.76
2023-04-10T02:39:11.089Z,29.16
2023-04-10T02:40:11.073Z,29.00
2023-04-10T02:41:11.074Z,28.74
2023-04-10T02:42:11.097Z,32.20
2023-04-10T02:43:11.076Z,30.02
2023-04-10T02:44:11.082Z,23.44
2023-04-10T02:45:11.103Z,33.20
2023-04-10T02:46:11.079Z,31.12
2023-04-10T02:47:11.080Z,25.14
2023-04-10T02:48:11.077Z,31.38
2023-04-10T02:49:11.083Z,25.58
2023-04-10T02:50:11.074Z,25.66
2023-04-10T02:51:11.080Z,24.68
2023-04-10T02:52:11.083Z,23.46
2023-04-10T02:53:11.074Z,25.96
2023-04-10T02:54:11.082Z,29.82
2023-04-10T02:55:11.072Z,30.14
2023-04-10T02:56:15.074Z,33.46
2023-04-10T02:57:11.085Z,25.78
2023-04-10T02:58:12.125Z,27.52
2023-04-10T02:59:11.090Z,27.28
2023-04-10T03:00:11.106Z,25.36
2023-04-10T03:01:11.097Z,26.30
2023-04-10T03:02:11.145Z,27.28
2023-04-10T03:03:11.307Z,28.60
2023-04-10T03:04:11.136Z,26.42
2023-04-10T03:05:11.085Z,27.24
2023-04-10T03:06:11.091Z,29.08
2023-04-10T03:07:11.086Z,25.34
2023-04-10T03:08:11.084Z,25.26
2023-04-10T03:09:11.084Z,26.62
2023-04-10T03:10:11.079Z,25.88
2023-04-10T03:11:11.072Z,26.80
2023-04-10T03:12:11.085Z,31.32
2023-04-10T03:13:11.079Z,26.02
2023-04-10T03:14:11.083Z,22.64
2023-04-10T03:15:11.084Z,29.00
2023-04-10T03:16:11.104Z,23.48
2023-04-10T03:17:11.073Z,24.98
2023-04-10T03:18:11.166Z,28.00
2023-04-10T03:19:11.079Z,25.34
2023-04-10T03:20:11.077Z,29.48
2023-04-10T03:21:11.085Z,26.22
2023-04-10T03:22:11.144Z,23.06
2023-04-10T03:23:11.074Z,18.92
2023-04-10T03:24:11.082Z,23.06
2023-04-10T03:25:11.089Z,25.60
2023-04-10T03:26:11.076Z,22.72
2023-04-10T03:27:11.081Z,21.84
2023-04-10T03:28:11.092Z,19.74
2023-04-10T03:29:11.077Z,22.12
2023-04-10T03:30:11.084Z,20.96
2023-04-10T03:31:11.122Z,20.28
2023-04-10T03:32:11.073Z,18.68
2023-04-10T03:33:11.085Z,21.24
2023-04-10T03:34:11.085Z,22.84
2023-04-10T03:35:11.081Z,19.50
2023-04-10T03:36:11.137Z,20.50
2023-04-10T03:37:11.086Z,21.94
2023-04-10T03:38:11.080Z,17.86
2023-04-10T03:39:11.079Z,18.24
2023-04-10T03:40:11.082Z,19.66
2023-04-10T03:41:11.108Z,19.36
2023-04-10T03:42:11.085Z,26.16
2023-04-10T03:43:11.129Z,19.90
2023-04-10T03:44:11.082Z,20.80
2023-04-10T03:45:11.082Z,20.14
2023-04-10T03:46:11.086Z,15.52
2023-04-10T03:47:11.215Z,18.28
2023-04-10T03:48:11.081Z,17.52
2023-04-10T03:49:11.091Z,15.46
2023-04-10T03:50:11.080Z,13.82
2023-04-10T03:51:11.083Z,15.58
2023-04-10T03:52:11.091Z,17.46
2023-04-10T03:53:11.078Z,13.78
2023-04-10T03:54:11.082Z,15.92
2023-04-10T03:55:11.088Z,15.72
2023-04-10T03:56:11.081Z,18.18
2023-04-10T03:57:11.082Z,14.02
2023-04-10T03:58:11.089Z,14.12
2023-04-10T03:59:11.081Z,12.56
2023-04-10T04:00:11.078Z,15.30
2023-04-10T04:01:11.069Z,17.08
2023-04-10T04:02:11.156Z,18.30
2023-04-10T04:03:11.335Z,13.20
2023-04-10T04:04:11.223Z,13.70
2023-04-10T04:05:11.168Z,15.42
2023-04-10T04:06:11.066Z,14.64
2023-04-10T04:07:11.079Z,15.18
2023-04-10T04:08:11.062Z,17.04
2023-04-10T04:09:11.058Z,18.16
2023-04-10T04:10:11.072Z,12.84
2023-04-10T04:11:11.063Z,12.84
2023-04-10T04:12:11.058Z,14.10
2023-04-10T04:13:11.064Z,11.62
2023-04-10T04:14:11.062Z,13.00
2023-04-10T04:15:11.060Z,10.56
2023-04-10T04:16:11.085Z,11.06
2023-04-10T04:17:11.063Z,11.82
2023-04-10T04:18:11.061Z,10.66
2023-04-10T04:19:11.064Z,11.92
2023-04-10T04:20:11.115Z,12.68
2023-04-10T04:21:12.059Z,11.26
2023-04-10T04:22:11.061Z,10.14
2023-04-10T04:23:11.090Z,9.24
2023-04-10T04:24:11.060Z,9.76
2023-04-10T04:25:12.181Z,11.24
2023-04-10T04:26:11.082Z,9.38
2023-04-10T04:27:11.062Z,9.94
2023-04-10T04:28:11.065Z,11.12
2023-04-10T04:29:11.074Z,7.26
2023-04-10T04:30:11.061Z,8.04
2023-04-10T04:31:11.064Z,8.46
2023-04-10T04:32:11.095Z,7.76
2023-04-10T04:33:11.065Z,8.54
2023-04-10T04:34:11.067Z,9.84
2023-04-10T04:35:11.066Z,11.18
2023-04-10T04:36:11.080Z,8.68
2023-04-10T04:37:11.065Z,7.66
2023-04-10T04:38:11.072Z,6.22
2023-04-10T04:39:11.068Z,6.46
2023-04-10T04:40:11.073Z,8.62
2023-04-10T04:41:11.067Z,7.30
2023-04-10T04:42:11.068Z,6.68
2023-04-10T04:43:11.069Z,6.78
2023-04-10T04:44:11.071Z,6.30
2023-04-10T04:45:11.064Z,5.96
2023-04-10T04:46:11.179Z,6.66
2023-04-10T04:47:11.079Z,6.26
2023-04-10T04:48:11.077Z,8.26
2023-04-10T04:49:11.068Z,5.22
2023-04-10T04:50:11.071Z,5.68
2023-04-10T04:51:11.072Z,5.24
2023-04-10T04:52:11.074Z,5.44
2023-04-10T04:53:11.069Z,5.66
2023-04-10T04:54:11.068Z,6.52
2023-04-10T04:55:11.074Z,5.50
2023-04-10T04:56:11.090Z,5.68
2023-04-10T04:57:11.084Z,4.90
2023-04-10T04:58:11.067Z,5.68
2023-04-10T04:59:11.072Z,5.16
2023-04-10T05:00:11.070Z,6.66
2023-04-10T05:01:11.143Z,5.72
2023-04-10T05:02:11.101Z,7.00
2023-04-10T05:03:11.157Z,5.96
2023-04-10T05:04:11.283Z,5.80
2023-04-10T05:05:11.072Z,5.28
2023-04-10T05:06:11.072Z,8.40
2023-04-10T05:07:11.071Z,5.86
2023-04-10T05:08:11.069Z,5.36
2023-04-10T05:09:11.068Z,4.36
2023-04-10T05:10:11.068Z,4.28
2023-04-10T05:11:11.069Z,5.82
2023-04-10T05:12:11.065Z,4.84
2023-04-10T05:13:11.108Z,4.98
2023-04-10T05:14:11.077Z,4.20
2023-04-10T05:15:11.064Z,4.60
2023-04-10T05:16:11.103Z,4.70
2023-04-10T05:17:11.079Z,5.92
2023-04-10T05:18:11.121Z,3.56
2023-04-10T05:19:11.069Z,3.90
2023-04-10T05:20:11.081Z,3.88
2023-04-10T05:21:11.067Z,4.82
2023-04-10T05:22:11.077Z,4.14
2023-04-10T05:23:11.081Z,4.24
2023-04-10T05:24:11.073Z,4.38
2023-04-10T05:25:11.066Z,3.96
2023-04-10T05:26:11.077Z,3.98
2023-04-10T05:27:11.068Z,4.72
2023-04-10T05:28:11.072Z,3.90
2023-04-10T05:29:11.087Z,4.82
2023-04-10T05:30:11.071Z,3.94
2023-04-10T05:31:11.128Z,3.98
2023-04-10T05:32:11.070Z,4.20
2023-04-10T05:33:11.082Z,4.12
2023-04-10T05:34:11.066Z,3.50
2023-04-10T05:35:11.072Z,3.24
2023-04-10T05:36:11.140Z,3.10
2023-04-10T05:37:11.070Z,3.82
2023-04-10T05:38:11.072Z,3.62
2023-04-10T05:39:11.087Z,3.42
2023-04-10T05:40:11.072Z,3.98
2023-04-10T05:41:11.070Z,4.30
2023-04-10T05:42:11.072Z,3.64
2023-04-10T05:43:11.076Z,2.70
2023-04-10T05:44:11.076Z,4.60
2023-04-10T05:45:11.074Z,3.54
2023-04-10T05:46:11.113Z,3.60
2023-04-10T05:47:11.072Z,3.56
2023-04-10T05:48:11.077Z,5.72
2023-04-10T05:49:11.086Z,3.16
2023-04-10T05:50:11.072Z,2.88
2023-04-10T05:51:11.075Z,3.78
2023-04-10T05:52:11.089Z,3.92
2023-04-10T05:53:13.074Z,3.54
2023-04-10T05:54:11.079Z,4.40
2023-04-10T05:55:11.079Z,3.02
2023-04-10T05:56:11.078Z,2.36
2023-04-10T05:57:11.079Z,3.12
2023-04-10T05:58:11.083Z,6.08
2023-04-10T05:59:11.073Z,2.62
2023-04-10T06:00:11.076Z,3.42
2023-04-10T06:01:11.078Z,2.88
2023-04-10T06:02:11.100Z,3.08
2023-04-10T06:03:11.167Z,2.84
2023-04-10T06:04:11.397Z,3.16
2023-04-10T06:05:11.122Z,2.52
2023-04-10T06:06:11.085Z,3.44
2023-04-10T06:07:11.077Z,2.88
2023-04-10T06:08:11.088Z,2.86
2023-04-10T06:09:11.073Z,2.72
2023-04-10T06:10:12.073Z,2.42
2023-04-10T06:11:11.072Z,2.86
2023-04-10T06:12:11.082Z,2.82
2023-04-10T06:13:11.314Z,2.80
2023-04-10T06:14:11.082Z,2.60
2023-04-10T06:15:11.074Z,2.90
2023-04-10T06:16:11.148Z,3.16
2023-04-10T06:17:11.075Z,2.70
2023-04-10T06:18:11.083Z,2.40
2023-04-10T06:19:11.078Z,1.70
2023-04-10T06:20:11.075Z,2.48
2023-04-10T06:21:11.082Z,1.74
2023-04-10T06:22:11.078Z,2.24
2023-04-10T06:23:11.080Z,3.10
2023-04-10T06:24:12.798Z,1.64
2023-04-10T06:25:11.076Z,1.78
2023-04-10T06:26:11.078Z,1.58
2023-04-10T06:27:11.075Z,2.00
2023-04-10T06:28:11.079Z,1.46
2023-04-10T06:29:11.079Z,1.54
2023-04-10T06:30:11.076Z,2.24
2023-04-10T06:31:11.097Z,2.92
2023-04-10T06:32:11.077Z,2.72
2023-04-10T06:33:11.086Z,1.94
2023-04-10T06:34:11.082Z,4.46
2023-04-10T06:35:11.080Z,1.52
2023-04-10T06:36:11.100Z,1.42
2023-04-10T06:37:11.081Z,1.22
2023-04-10T06:38:11.078Z,1.44
2023-04-10T06:39:11.080Z,1.26
2023-04-10T06:40:11.086Z,1.10
2023-04-10T06:41:11.079Z,1.32
2023-04-10T06:42:11.084Z,1.12
2023-04-10T06:43:11.082Z,1.62
2023-04-10T06:44:11.080Z,0.98
2023-04-10T06:45:11.087Z,0.72
2023-04-10T06:46:11.083Z,1.38
2023-04-10T06:47:11.130Z,0.80
2023-04-10T06:48:11.086Z,2.30
2023-04-10T06:49:11.085Z,1.24
2023-04-10T06:50:11.080Z,0.94
2023-04-10T06:51:11.088Z,1.06
2023-04-10T06:52:11.082Z,0.86
2023-04-10T06:53:11.085Z,0.66
2023-04-10T06:54:11.092Z,1.44
2023-04-10T06:55:11.084Z,1.30
2023-04-10T06:56:11.091Z,0.64
2023-04-10T06:57:11.108Z,1.04
2023-04-10T06:58:11.086Z,0.56
2023-04-10T06:59:11.080Z,0.68
2023-04-10T07:00:11.090Z,0.62
2023-04-10T07:01:11.128Z,1.38
2023-04-10T07:02:11.090Z,0.40
2023-04-10T07:03:11.106Z,1.00
2023-04-10T07:04:11.106Z,0.80
2023-04-10T07:05:11.066Z,2.24
2023-04-10T07:06:11.066Z,0.98
2023-04-10T07:07:13.065Z,1.42
2023-04-10T07:08:11.107Z,0.80
2023-04-10T07:09:11.063Z,0.44
2023-04-10T07:10:11.063Z,0.74
2023-04-10T07:11:11.070Z,1.24
2023-04-10T07:12:11.064Z,1.70
2023-04-10T07:13:11.068Z,2.00
2023-04-10T07:14:11.066Z,1.80
2023-04-10T07:15:11.064Z,0.76
2023-04-10T07:16:11.136Z,1.08
2023-04-10T07:17:11.058Z,1.04
2023-04-10T07:18:11.064Z,0.60
2023-04-10T07:19:11.066Z,0.94
2023-04-10T07:20:11.065Z,1.06
2023-04-10T07:21:12.069Z,0.74
2023-04-10T07:22:11.070Z,1.36
2023-04-10T07:23:11.073Z,0.84
2023-04-10T07:24:11.099Z,1.04
2023-04-10T07:25:11.087Z,0.82
2023-04-10T07:26:11.080Z,0.60
2023-04-10T07:27:11.067Z,1.38
2023-04-10T07:28:11.071Z,0.48
2023-04-10T07:29:11.065Z,0.68
2023-04-10T07:30:13.386Z,0.76
2023-04-10T07:31:11.065Z,0.66
2023-04-10T07:32:11.222Z,1.92
2023-04-10T07:33:11.179Z,0.60
2023-04-10T07:34:11.069Z,4.52
2023-04-10T07:35:11.064Z,0.86
2023-04-10T07:36:11.086Z,1.96
2023-04-10T07:37:11.069Z,0.90
2023-04-10T07:38:11.071Z,0.92
2023-04-10T07:39:11.083Z,0.66
2023-04-10T07:40:11.068Z,1.30
2023-04-10T07:41:11.071Z,0.86
2023-04-10T07:42:11.080Z,0.58
2023-04-10T07:43:11.067Z,0.54
2023-04-10T07:44:11.070Z,0.70
2023-04-10T07:45:11.102Z,0.94
2023-04-10T07:46:11.142Z,0.88
2023-04-10T07:47:11.069Z,0.54
2023-04-10T07:48:11.074Z,2.54
2023-04-10T07:49:11.071Z,0.68
2023-04-10T07:50:11.070Z,0.62
2023-04-10T07:51:13.076Z,0.64
2023-04-10T07:52:11.093Z,0.78
2023-04-10T07:53:11.065Z,0.62
2023-04-10T07:54:11.076Z,1.32
2023-04-10T07:55:11.101Z,0.80
2023-04-10T07:56:15.070Z,2.32
2023-04-10T07:57:11.080Z,1.02
2023-04-10T07:58:11.068Z,1.64
2023-04-10T07:59:11.066Z,0.52
2023-04-10T08:00:11.071Z,0.58
2023-04-10T08:01:11.070Z,0.66
2023-04-10T08:02:11.119Z,1.50
2023-04-10T08:03:11.324Z,0.86
2023-04-10T08:04:11.281Z,0.64
2023-04-10T08:05:11.186Z,0.96
2023-04-10T08:06:12.080Z,0.50
2023-04-10T08:07:11.079Z,0.80
2023-04-10T08:08:11.073Z,0.88
2023-04-10T08:09:11.083Z,1.28
2023-04-10T08:10:11.076Z,0.56
2023-04-10T08:11:19.073Z,0.90
2023-04-10T08:12:11.070Z,1.10
2023-04-10T08:13:11.071Z,0.92
2023-04-10T08:14:11.097Z,5.08
2023-04-10T08:15:11.073Z,0.60
2023-04-10T08:16:11.087Z,4.64
2023-04-10T08:17:11.217Z,2.10
2023-04-10T08:18:11.069Z,0.72
2023-04-10T08:19:11.073Z,2.20
2023-04-10T08:20:11.070Z,1.20
2023-04-10T08:21:11.070Z,0.50
2023-04-10T08:22:11.072Z,3.00
2023-04-10T08:23:19.652Z,0.58
2023-04-10T08:24:13.057Z,2.04
2023-04-10T08:25:11.070Z,0.76
2023-04-10T08:26:11.069Z,6.36
2023-04-10T08:27:11.076Z,2.50
2023-04-10T08:28:11.071Z,1.20
2023-04-10T08:29:11.068Z,1.62
2023-04-10T08:30:11.079Z,1.36
2023-04-10T08:31:11.127Z,2.30
2023-04-10T08:32:11.081Z,5.32
2023-04-10T08:33:11.080Z,1.48
2023-04-10T08:34:11.076Z,2.90
2023-04-10T08:35:11.069Z,2.28
2023-04-10T08:36:13.142Z,3.92
2023-04-10T08:37:11.936Z,1.78
2023-04-10T08:38:14.097Z,2.60
2023-04-10T08:39:11.071Z,5.16
2023-04-10T08:40:11.075Z,1.98
2023-04-10T08:41:16.106Z,2.08
2023-04-10T08:42:11.077Z,4.04
2023-04-10T08:43:11.073Z,1.78
2023-04-10T08:44:11.072Z,1.46
2023-04-10T08:45:11.073Z,2.14
2023-04-10T08:46:11.137Z,4.70
2023-04-10T08:47:11.073Z,2.68
2023-04-10T08:48:12.087Z,2.54
2023-04-10T08:49:11.082Z,2.58
2023-04-10T08:50:12.083Z,8.42
2023-04-10T08:51:19.491Z,2.98
2023-04-10T08:52:15.036Z,1.80
2023-04-10T08:53:14.077Z,3.46
2023-04-10T08:54:13.078Z,3.00
2023-04-10T08:55:12.076Z,4.62
2023-04-10T08:56:16.079Z,1.98
2023-04-10T08:57:11.273Z,1.40
2023-04-10T08:58:11.076Z,2.06
2023-04-10T08:59:11.099Z,2.66
2023-04-10T09:01:13.070Z,1.80
2023-04-10T09:02:11.134Z,1.72
2023-04-10T09:03:14.254Z,0.90
2023-04-10T09:04:13.231Z,0.54
2023-04-10T09:05:12.081Z,3.92
2023-04-10T09:06:11.072Z,2.74
2023-04-10T09:07:11.078Z,7.86
2023-04-10T09:08:11.087Z,6.48
2023-04-10T09:09:11.077Z,0.76
2023-04-10T09:10:11.082Z,1.74
2023-04-10T09:11:11.074Z,3.46
2023-04-10T09:12:11.076Z,2.02
2023-04-10T09:13:11.092Z,2.08
2023-04-10T09:14:19.076Z,8.54
2023-04-10T09:15:11.078Z,2.74
2023-04-10T09:16:11.114Z,1.76
2023-04-10T09:17:15.082Z,2.62
2023-04-10T09:18:11.117Z,2.46
2023-04-10T09:19:11.077Z,2.68
2023-04-10T09:20:19.102Z,2.02
2023-04-10T09:21:11.086Z,3.96
2023-04-10T09:22:11.147Z,3.20
2023-04-10T09:23:19.082Z,1.40
2023-04-10T09:24:11.078Z,2.66
2023-04-10T09:25:19.093Z,0.82
2023-04-10T09:26:19.078Z,1.14
2023-04-10T09:27:11.077Z,4.10
2023-04-10T09:28:11.084Z,1.78
2023-04-10T09:29:11.074Z,3.36
2023-04-10T09:30:11.083Z,2.14
2023-04-10T09:31:22.116Z,2.48
2023-04-10T09:32:11.078Z,1.46
2023-04-10T09:33:19.078Z,2.38
2023-04-10T09:34:15.085Z,1.56
2023-04-10T09:35:14.094Z,1.36
2023-04-10T09:36:14.090Z,2.34
2023-04-10T09:37:11.077Z,1.18
2023-04-10T09:38:17.078Z,2.60
2023-04-10T09:39:11.075Z,3.28
2023-04-10T09:40:19.102Z,1.90
2023-04-10T09:41:11.078Z,4.20
2023-04-10T09:42:11.083Z,2.44
2023-04-10T09:43:18.084Z,0.70
2023-04-10T09:44:13.095Z,2.54
2023-04-10T09:45:11.077Z,1.76
2023-04-10T09:46:11.114Z,1.10
2023-04-10T09:47:18.102Z,1.38
2023-04-10T09:48:11.078Z,0.76
2023-04-10T09:49:11.080Z,0.60
2023-04-10T09:50:11.085Z,1.32
2023-04-10T09:51:19.082Z,1.42
2023-04-10T09:52:17.084Z,1.20
2023-04-10T09:53:11.089Z,0.36
2023-04-10T09:54:11.081Z,1.92
2023-04-10T09:55:15.082Z,1.44
2023-04-10T09:56:11.080Z,2.70
2023-04-10T09:57:11.080Z,1.54
2023-04-10T09:58:11.093Z,2.00
2023-04-10T09:59:11.081Z,2.70
2023-04-10T10:00:11.083Z,0.94
2023-04-10T10:01:12.053Z,3.24
2023-04-10T10:02:11.112Z,2.30
2023-04-10T10:03:13.357Z,0.56
2023-04-10T10:04:11.072Z,3.48
2023-04-10T10:05:11.109Z,4.20
2023-04-10T10:06:11.056Z,3.92
2023-04-10T10:07:11.083Z,1.44
2023-04-10T10:08:13.058Z,2.16
2023-04-10T10:09:11.067Z,1.62
2023-04-10T10:10:11.066Z,1.84
2023-04-10T10:11:15.061Z,4.28
2023-04-10T10:12:11.066Z,2.18
2023-04-10T10:13:11.075Z,3.72
2023-04-10T10:14:15.067Z,3.22
2023-04-10T10:15:16.073Z,6.50
2023-04-10T10:16:21.101Z,6.48
2023-04-10T10:17:15.058Z,2.88
2023-04-10T10:18:20.064Z,2.88
2023-04-10T10:19:19.070Z,5.32
2023-04-10T10:20:11.087Z,3.38
2023-04-10T10:21:11.058Z,3.26
2023-04-10T10:22:11.065Z,2.88
2023-04-10T10:23:11.072Z,3.72
2023-04-10T10:24:11.069Z,1.62
2023-04-10T10:25:11.067Z,2.76
2023-04-10T10:26:12.073Z,2.90
2023-04-10T10:27:11.066Z,3.02
2023-04-10T10:28:14.126Z,3.78
2023-04-10T10:29:11.129Z,1.30
2023-04-10T10:30:25.268Z,2.66
2023-04-10T10:31:13.896Z,1.16
2023-04-10T10:32:11.073Z,3.88
2023-04-10T10:33:11.067Z,6.28
2023-04-10T10:34:12.065Z,5.44
2023-04-10T10:35:11.067Z,2.98
2023-04-10T10:36:11.078Z,4.80
2023-04-10T10:37:11.066Z,5.64
2023-04-10T10:38:11.068Z,11.90
2023-04-10T10:39:19.070Z,3.14
2023-04-10T10:40:20.064Z,2.26
2023-04-10T10:41:20.070Z,3.78
2023-04-10T10:42:19.071Z,5.40
2023-04-10T10:43:18.072Z,7.80
2023-04-10T10:44:19.079Z,4.76
2023-04-10T10:45:16.074Z,3.32
2023-04-10T10:46:14.194Z,6.14
2023-04-10T10:47:19.072Z,5.02
2023-04-10T10:48:11.081Z,5.38
2023-04-10T10:49:11.080Z,3.84
2023-04-10T10:50:11.071Z,4.98
2023-04-10T10:51:11.092Z,5.08
2023-04-10T10:52:11.069Z,4.00
2023-04-10T10:53:15.072Z,4.28
2023-04-10T10:54:19.073Z,7.10
2023-04-10T10:55:19.071Z,5.54
2023-04-10T10:56:19.071Z,4.70
2023-04-10T10:57:21.071Z,4.72
2023-04-10T10:58:11.076Z,7.82
2023-04-10T10:59:11.076Z,8.44
2023-04-10T11:00:11.068Z,8.14
2023-04-10T11:01:11.155Z,5.60
2023-04-10T11:02:17.196Z,6.84
2023-04-10T11:03:19.436Z,5.82
2023-04-10T11:04:21.074Z,4.66
2023-04-10T11:05:11.084Z,9.92
2023-04-10T11:06:12.080Z,7.98
2023-04-10T11:07:11.084Z,5.86
2023-04-10T11:08:11.075Z,6.52
2023-04-10T11:09:15.078Z,10.60
2023-04-10T11:10:11.075Z,5.00
2023-04-10T11:11:15.082Z,9.90
2023-04-10T11:12:11.074Z,6.30
2023-04-10T11:13:17.130Z,4.62
2023-04-10T11:14:14.076Z,5.70
2023-04-10T11:15:11.085Z,12.04
2023-04-10T11:16:11.123Z,13.80
2023-04-10T11:17:11.079Z,6.68
2023-04-10T11:18:11.092Z,7.86
2023-04-10T11:19:15.548Z,8.28
2023-04-10T11:20:11.088Z,11.36
2023-04-10T11:21:15.091Z,9.16
2023-04-10T11:22:11.078Z,9.58
2023-04-10T11:23:11.142Z,10.78
2023-04-10T11:24:11.077Z,13.36
2023-04-10T11:25:14.079Z,13.22
2023-04-10T11:26:11.078Z,9.76
2023-04-10T11:27:15.076Z,5.82
2023-04-10T11:28:11.088Z,6.66
2023-04-10T11:29:21.073Z,3.92
2023-04-10T11:30:19.072Z,7.34
2023-04-10T11:31:18.079Z,4.80
2023-04-10T11:32:11.154Z,8.58
2023-04-10T11:33:15.075Z,12.84
2023-04-10T11:34:11.073Z,7.76
2023-04-10T11:35:11.078Z,4.40
2023-04-10T11:36:13.076Z,7.14
2023-04-10T11:37:11.078Z,4.34
2023-04-10T11:38:14.090Z,5.82
2023-04-10T11:39:13.090Z,7.64
2023-04-10T11:40:11.072Z,8.44
2023-04-10T11:41:11.074Z,7.62
2023-04-10T11:42:11.081Z,2.04
2023-04-10T11:43:15.107Z,4.18
2023-04-10T11:44:13.074Z,10.92
2023-04-10T11:45:19.083Z,5.98
2023-04-10T11:46:11.219Z,4.66
2023-04-10T11:47:14.074Z,6.68
2023-04-10T11:48:11.077Z,6.26
2023-04-10T11:49:11.089Z,9.66
2023-04-10T11:50:11.072Z,7.20
2023-04-10T11:51:13.076Z,6.34
2023-04-10T11:52:11.085Z,5.32
2023-04-10T11:53:19.076Z,6.52
2023-04-10T11:54:14.083Z,4.62
2023-04-10T11:55:11.074Z,4.42
2023-04-10T11:56:19.075Z,3.80
2023-04-10T11:57:11.078Z,6.90
2023-04-10T11:58:19.074Z,5.48
2023-04-10T11:59:17.073Z,4.72
2023-04-10T12:00:11.084Z,4.12
2023-04-10T12:01:11.072Z,8.58
2023-04-10T12:02:13.188Z,3.18
2023-04-10T12:03:11.178Z,2.80
2023-04-10T12:04:15.303Z,5.90
2023-04-10T12:05:11.197Z,2.74
2023-04-10T12:06:13.103Z,4.84
2023-04-10T12:07:11.096Z,6.68
2023-04-10T12:08:11.074Z,6.32
2023-04-10T12:09:15.076Z,7.70
2023-04-10T12:10:11.081Z,8.90
2023-04-10T12:11:11.079Z,3.16
2023-04-10T12:12:11.077Z,4.32
2023-04-10T12:13:19.078Z,10.98
2023-04-10T12:14:11.081Z,5.76
2023-04-10T12:15:19.087Z,7.92
2023-04-10T12:16:11.153Z,7.60
2023-04-10T12:17:11.119Z,4.42
2023-04-10T12:18:11.092Z,5.44
2023-04-10T12:19:11.079Z,3.70
2023-04-10T12:20:11.096Z,4.84
2023-04-10T12:21:11.103Z,3.44
2023-04-10T12:22:11.081Z,5.02
2023-04-10T12:23:11.078Z,4.36
2023-04-10T12:24:11.075Z,7.14
2023-04-10T12:25:13.109Z,3.68
2023-04-10T12:26:11.134Z,7.46
2023-04-10T12:27:15.080Z,5.58
2023-04-10T12:28:15.083Z,5.26
2023-04-10T12:29:11.081Z,5.42
2023-04-10T12:30:11.080Z,6.66
2023-04-10T12:31:11.134Z,7.02
2023-04-10T12:32:11.095Z,5.34
2023-04-10T12:33:11.086Z,3.80
2023-04-10T12:34:11.445Z,7.28
2023-04-10T12:35:11.084Z,6.90
2023-04-10T12:36:19.088Z,5.68
2023-04-10T12:37:11.085Z,4.08
2023-04-10T12:38:11.088Z,4.56
2023-04-10T12:39:19.098Z,6.34
2023-04-10T12:40:11.104Z,3.60
2023-04-10T12:41:13.095Z,4.30
2023-04-10T12:42:20.086Z,7.74
2023-04-10T12:43:11.090Z,4.08
2023-04-10T12:44:13.099Z,6.18
2023-04-10T12:45:11.090Z,3.60
2023-04-10T12:46:11.234Z,2.40
2023-04-10T12:47:11.090Z,2.62
2023-04-10T12:48:11.166Z,4.84
2023-04-10T12:49:11.087Z,0.60
2023-04-10T12:50:16.128Z,3.80
2023-04-10T12:51:11.089Z,5.26
2023-04-10T12:52:11.090Z,5.26
2023-04-10T12:53:13.092Z,2.14
2023-04-10T12:54:11.089Z,4.76
2023-04-10T12:55:17.095Z,1.60
2023-04-10T12:56:12.100Z,4.54
2023-04-10T12:57:15.092Z,1.88
2023-04-10T12:58:17.090Z,2.44
2023-04-10T12:59:11.100Z,8.08
2023-04-10T13:00:11.213Z,3.16
2023-04-10T13:01:11.075Z,2.82
2023-04-10T13:02:11.133Z,3.16
2023-04-10T13:03:11.269Z,2.44
2023-04-10T13:04:11.288Z,5.62
2023-04-10T13:05:11.095Z,3.00
2023-04-10T13:06:11.074Z,4.08
2023-04-10T13:07:11.066Z,3.26
2023-04-10T13:08:11.081Z,3.26
2023-04-10T13:09:11.074Z,2.66
2023-04-10T13:10:11.225Z,2.62